Terminal Aerodrome Forecast
Issued by NWS Newport/Morehead City, NC

Home | Current Version | Previous Version | Text Only | Print | Product List | Glossary Off
Versions: 1 2 3 4 5 6 7 8 9 10 11 12

239
FTUS42 KMHX 100530
TAFEWN
TAF
KEWN 100530Z 1006/1106 28007KT P6SM SKC
      TEMPO 1006/1008 BKN015
     FM101400 29012KT P6SM SKC
     FM102200 27003KT P6SM SKC=

USA.gov is the U.S. government's official web portal to all federal, state and local government web resources and services.